sensor_id;sensor_type;location;lat;lon;timestamp;pressure;altitude;pressure_sealevel;temperature;humidity
57452;BME280;66031;51.224;-0.164;2023-02-02T00:01:39;101859.59;;;16.58;34.45
57452;BME280;66031;51.224;-0.164;2023-02-02T00:04:04;101860.93;;;16.57;34.40
57452;BME280;66031;51.224;-0.164;2023-02-02T00:06:30;101863.81;;;16.92;34.55
57452;BME280;66031;51.224;-0.164;2023-02-02T00:08:56;101865.24;;;16.66;34.55
57452;BME280;66031;51.224;-0.164;2023-02-02T00:11:20;101863.49;;;16.40;34.57
57452;BME280;66031;51.224;-0.164;2023-02-02T00:13:45;101860.83;;;16.59;34.61
57452;BME280;66031;51.224;-0.164;2023-02-02T00:18:36;101851.87;;;16.55;34.61
57452;BME280;66031;51.224;-0.164;2023-02-02T00:21:02;101854.07;;;16.61;34.52
57452;BME280;66031;51.224;-0.164;2023-02-02T00:23:26;101856.79;;;16.59;34.52
57452;BME280;66031;51.224;-0.164;2023-02-02T00:25:53;101860.50;;;16.56;34.55
57452;BME280;66031;51.224;-0.164;2023-02-02T00:28:17;101863.58;;;16.46;34.64
57452;BME280;66031;51.224;-0.164;2023-02-02T00:30:42;101863.24;;;16.77;34.54
57452;BME280;66031;51.224;-0.164;2023-02-02T00:33:08;101864.52;;;16.45;34.61
57452;BME280;66031;51.224;-0.164;2023-02-02T00:35:33;101866.07;;;16.20;34.61
57452;BME280;66031;51.224;-0.164;2023-02-02T00:37:58;101867.10;;;16.39;34.66
57452;BME280;66031;51.224;-0.164;2023-02-02T00:40:24;101872.30;;;16.42;34.60
57452;BME280;66031;51.224;-0.164;2023-02-02T00:42:49;101871.39;;;16.43;34.54
57452;BME280;66031;51.224;-0.164;2023-02-02T00:45:14;101867.83;;;16.33;34.64
57452;BME280;66031;51.224;-0.164;2023-02-02T00:47:40;101869.07;;;16.08;34.62
57452;BME280;66031;51.224;-0.164;2023-02-02T00:50:06;101865.68;;;16.51;34.67
57452;BME280;66031;51.224;-0.164;2023-02-02T00:52:30;101861.75;;;16.32;34.61
57452;BME280;66031;51.224;-0.164;2023-02-02T00:54:56;101858.71;;;16.32;34.58
57452;BME280;66031;51.224;-0.164;2023-02-02T00:57:21;101857.72;;;16.50;34.63
57452;BME280;66031;51.224;-0.164;2023-02-02T00:59:46;101857.28;;;16.22;34.66
57452;BME280;66031;51.224;-0.164;2023-02-02T01:02:13;101857.62;;;16.21;34.65
57452;BME280;66031;51.224;-0.164;2023-02-02T01:04:37;101862.86;;;16.47;34.61
57452;BME280;66031;51.224;-0.164;2023-02-02T01:07:02;101865.68;;;16.43;34.65
57452;BME280;66031;51.224;-0.164;2023-02-02T01:09:27;101868.28;;;16.16;34.67
57452;BME280;66031;51.224;-0.164;2023-02-02T01:11:53;101868.62;;;16.14;34.67
57452;BME280;66031;51.224;-0.164;2023-02-02T01:14:18;101868.08;;;16.37;34.66
57452;BME280;66031;51.224;-0.164;2023-02-02T01:16:44;101867.03;;;16.52;34.74
57452;BME280;66031;51.224;-0.164;2023-02-02T01:19:12;101864.52;;;16.38;34.60
57452;BME280;66031;51.224;-0.164;2023-02-02T01:21:34;101860.15;;;16.42;34.52
57452;BME280;66031;51.224;-0.164;2023-02-02T01:23:59;101861.15;;;16.10;34.61
57452;BME280;66031;51.224;-0.164;2023-02-02T01:26:25;101860.27;;;16.24;34.70
57452;BME280;66031;51.224;-0.164;2023-02-02T01:28:50;101863.57;;;16.00;34.70
57452;BME280;66031;51.224;-0.164;2023-02-02T01:31:17;101865.26;;;16.04;34.62
57452;BME280;66031;51.224;-0.164;2023-02-02T01:33:42;101860.50;;;16.28;34.61
57452;BME280;66031;51.224;-0.164;2023-02-02T01:36:10;101855.70;;;15.99;34.63
57452;BME280;66031;51.224;-0.164;2023-02-02T01:38:32;101863.77;;;16.25;34.61
57452;BME280;66031;51.224;-0.164;2023-02-02T01:40:57;101866.65;;;16.23;34.60
57452;BME280;66031;51.224;-0.164;2023-02-02T01:43:24;101867.64;;;16.19;34.65
57452;BME280;66031;51.224;-0.164;2023-02-02T01:45:48;101863.85;;;16.15;34.66
57452;BME280;66031;51.224;-0.164;2023-02-02T01:48:13;101860.68;;;16.15;34.64
57452;BME280;66031;51.224;-0.164;2023-02-02T01:50:38;101863.82;;;15.91;34.63
57452;BME280;66031;51.224;-0.164;2023-02-02T01:53:04;101859.53;;;15.91;34.60
57452;BME280;66031;51.224;-0.164;2023-02-02T01:55:30;101859.18;;;16.12;34.62
57452;BME280;66031;51.224;-0.164;2023-02-02T01:57:56;101859.84;;;16.11;34.62
57452;BME280;66031;51.224;-0.164;2023-02-02T02:00:20;101856.28;;;16.36;34.59
57452;BME280;66031;51.224;-0.164;2023-02-02T02:02:48;101854.88;;;16.33;34.62
57452;BME280;66031;51.224;-0.164;2023-02-02T02:05:10;101851.81;;;15.82;34.64
57452;BME280;66031;51.224;-0.164;2023-02-02T02:07:36;101855.76;;;16.04;34.64
57452;BME280;66031;51.224;-0.164;2023-02-02T02:10:01;101856.71;;;16.10;34.55
57452;BME280;66031;51.224;-0.164;2023-02-02T02:12:27;101854.89;;;16.11;34.51
57452;BME280;66031;51.224;-0.164;2023-02-02T02:14:52;101856.86;;;15.84;34.54
57452;BME280;66031;51.224;-0.164;2023-02-02T02:17:29;101854.52;;;16.26;34.58
57452;BME280;66031;51.224;-0.164;2023-02-02T02:22:11;101855.48;;;15.81;34.51
57452;BME280;66031;51.224;-0.164;2023-02-02T02:29:38;101861.47;;;15.81;34.50
57452;BME280;66031;51.224;-0.164;2023-02-02T02:31:59;101864.30;;;16.09;34.43
57452;BME280;66031;51.224;-0.164;2023-02-02T02:34:16;101866.16;;;16.04;34.47
57452;BME280;66031;51.224;-0.164;2023-02-02T02:36:47;101861.51;;;15.99;34.50
57452;BME280;66031;51.224;-0.164;2023-02-02T02:39:11;101861.75;;;16.20;34.51
57452;BME280;66031;51.224;-0.164;2023-02-02T02:41:33;101858.59;;;16.21;34.49
57452;BME280;66031;51.224;-0.164;2023-02-02T02:43:59;101859.73;;;15.94;34.51
57452;BME280;66031;51.224;-0.164;2023-02-02T02:46:21;101858.97;;;15.90;34.55
57452;BME280;66031;51.224;-0.164;2023-02-02T02:48:46;101858.46;;;15.61;34.59
57452;BME280;66031;51.224;-0.164;2023-02-02T02:53:37;101858.78;;;15.89;34.50
57452;BME280;66031;51.224;-0.164;2023-02-02T02:56:10;101858.79;;;16.10;34.53
57452;BME280;66031;51.224;-0.164;2023-02-02T02:58:34;101856.10;;;15.86;34.50
57452;BME280;66031;51.224;-0.164;2023-02-02T03:01:00;101860.86;;;15.82;34.54
57452;BME280;66031;51.224;-0.164;2023-02-02T03:03:28;101856.63;;;15.79;34.54
57452;BME280;66031;51.224;-0.164;2023-02-02T03:05:50;101852.49;;;16.06;34.49
57452;BME280;66031;51.224;-0.164;2023-02-02T03:08:12;101861.50;;;16.05;34.49
57452;BME280;66031;51.224;-0.164;2023-02-02T03:10:36;101861.02;;;15.84;34.44
57452;BME280;66031;51.224;-0.164;2023-02-02T03:13:00;101861.32;;;15.87;34.39
57452;BME280;66031;51.224;-0.164;2023-02-02T03:15:25;101864.92;;;16.01;34.48
57452;BME280;66031;51.224;-0.164;2023-02-02T03:17:52;101868.64;;;16.01;34.48
57452;BME280;66031;51.224;-0.164;2023-02-02T03:20:17;101868.53;;;15.78;34.43
57452;BME280;66031;51.224;-0.164;2023-02-02T03:22:41;101866.23;;;15.98;34.46
57452;BME280;66031;51.224;-0.164;2023-02-02T03:25:07;101861.58;;;15.71;34.48
57452;BME280;66031;51.224;-0.164;2023-02-02T03:27:32;101862.64;;;15.69;34.49
57452;BME280;66031;51.224;-0.164;2023-02-02T03:29:57;101869.29;;;15.74;34.41
57452;BME280;66031;51.224;-0.164;2023-02-02T03:32:23;101863.85;;;15.69;34.45
57452;BME280;66031;51.224;-0.164;2023-02-02T03:34:48;101866.99;;;15.95;34.42
57452;BME280;66031;51.224;-0.164;2023-02-02T03:37:13;101865.89;;;15.43;34.44
57452;BME280;66031;51.224;-0.164;2023-02-02T03:39:38;101865.30;;;15.66;34.44
57452;BME280;66031;51.224;-0.164;2023-02-02T03:42:04;101866.42;;;15.63;34.47
57452;BME280;66031;51.224;-0.164;2023-02-02T03:44:29;101868.37;;;15.63;34.45
57452;BME280;66031;51.224;-0.164;2023-02-02T03:46:54;101869.99;;;15.60;34.48
57452;BME280;66031;51.224;-0.164;2023-02-02T03:49:20;101870.82;;;15.58;34.49
57452;BME280;66031;51.224;-0.164;2023-02-02T03:51:45;101870.39;;;15.54;34.50
57452;BME280;66031;51.224;-0.164;2023-02-02T03:54:11;101870.78;;;15.76;34.49
57452;BME280;66031;51.224;-0.164;2023-02-02T03:56:36;101869.87;;;15.52;34.48
57452;BME280;66031;51.224;-0.164;2023-02-02T03:59:01;101871.64;;;15.79;34.43
57452;BME280;66031;51.224;-0.164;2023-02-02T04:01:28;101874.34;;;15.75;34.46
57452;BME280;66031;51.224;-0.164;2023-02-02T04:03:52;101876.89;;;15.73;34.48
57452;BME280;66031;51.224;-0.164;2023-02-02T04:06:17;101876.77;;;15.74;34.45
57452;BME280;66031;51.224;-0.164;2023-02-02T04:08:42;101875.09;;;15.70;34.47
57452;BME280;66031;51.224;-0.164;2023-02-02T04:11:08;101874.60;;;15.73;34.41
57452;BME280;66031;51.224;-0.164;2023-02-02T04:13:33;101874.43;;;15.68;34.47
57452;BME280;66031;51.224;-0.164;2023-02-02T04:15:59;101873.49;;;15.65;34.48
57452;BME280;66031;51.224;-0.164;2023-02-02T04:18:25;101876.62;;;15.23;34.40
57452;BME280;66031;51.224;-0.164;2023-02-02T04:20:53;101875.41;;;15.47;34.36
57452;BME280;66031;51.224;-0.164;2023-02-02T04:23:14;101880.63;;;15.67;34.39
57452;BME280;66031;51.224;-0.164;2023-02-02T04:25:47;101882.16;;;15.68;34.37
57452;BME280;66031;51.224;-0.164;2023-02-02T04:28:05;101876.58;;;15.66;34.37
57452;BME280;66031;51.224;-0.164;2023-02-02T04:30:30;101871.69;;;15.69;34.30
57452;BME280;66031;51.224;-0.164;2023-02-02T04:32:56;101871.82;;;15.63;34.38
57452;BME280;66031;51.224;-0.164;2023-02-02T04:35:21;101877.61;;;15.57;34.43
57452;BME280;66031;51.224;-0.164;2023-02-02T04:37:47;101882.23;;;15.60;34.39
57452;BME280;66031;51.224;-0.164;2023-02-02T04:40:13;101880.53;;;15.62;34.35
57452;BME280;66031;51.224;-0.164;2023-02-02T04:42:37;101881.52;;;15.56;34.40
57452;BME280;66031;51.224;-0.164;2023-02-02T04:45:03;101884.72;;;15.32;34.40
57452;BME280;66031;51.224;-0.164;2023-02-02T04:47:28;101882.56;;;15.56;34.39
57452;BME280;66031;51.224;-0.164;2023-02-02T04:49:53;101883.48;;;15.53;34.41
57452;BME280;66031;51.224;-0.164;2023-02-02T04:52:19;101888.27;;;15.31;34.38
57452;BME280;66031;51.224;-0.164;2023-02-02T04:54:44;101886.60;;;15.52;34.39
57452;BME280;66031;51.224;-0.164;2023-02-02T04:57:09;101886.54;;;15.54;34.36
57452;BME280;66031;51.224;-0.164;2023-02-02T04:59:35;101887.23;;;15.28;34.36
57452;BME280;66031;51.224;-0.164;2023-02-02T05:02:00;101886.88;;;15.48;34.40
57452;BME280;66031;51.224;-0.164;2023-02-02T05:04:25;101886.62;;;15.47;34.39
57452;BME280;66031;51.224;-0.164;2023-02-02T05:06:51;101885.59;;;15.47;34.38
57452;BME280;66031;51.224;-0.164;2023-02-02T05:09:16;101888.66;;;15.34;34.23
57452;BME280;66031;51.224;-0.164;2023-02-02T05:11:41;101890.70;;;15.54;34.27
57452;BME280;66031;51.224;-0.164;2023-02-02T05:14:08;101888.96;;;15.54;34.24
57452;BME280;66031;51.224;-0.164;2023-02-02T05:16:32;101887.68;;;15.24;34.31
57452;BME280;66031;51.224;-0.164;2023-02-02T05:18:57;101888.63;;;15.49;34.26
57452;BME280;66031;51.224;-0.164;2023-02-02T05:21:23;101891.70;;;15.44;34.32
57452;BME280;66031;51.224;-0.164;2023-02-02T05:23:48;101891.05;;;15.47;34.27
57452;BME280;66031;51.224;-0.164;2023-02-02T05:26:15;101891.46;;;15.40;34.34
57452;BME280;66031;51.224;-0.164;2023-02-02T05:28:39;101891.96;;;15.16;34.31
57452;BME280;66031;51.224;-0.164;2023-02-02T05:31:05;101891.83;;;15.42;34.28
57452;BME280;66031;51.224;-0.164;2023-02-02T05:33:30;101889.98;;;15.41;34.28
57452;BME280;66031;51.224;-0.164;2023-02-02T05:35:55;101887.55;;;15.67;33.99
57452;BME280;66031;51.224;-0.164;2023-02-02T05:38:20;101883.60;;;15.96;33.38
57452;BME280;66031;51.224;-0.164;2023-02-02T05:40:47;101880.15;;;16.39;32.84
57452;BME280;66031;51.224;-0.164;2023-02-02T05:43:11;101882.45;;;16.50;32.75
57452;BME280;66031;51.224;-0.164;2023-02-02T05:45:36;101888.80;;;16.59;32.66
57452;BME280;66031;51.224;-0.164;2023-02-02T05:48:01;101890.01;;;16.70;32.53
57452;BME280;66031;51.224;-0.164;2023-02-02T05:50:27;101887.39;;;16.54;32.48
57452;BME280;66031;51.224;-0.164;2023-02-02T05:52:52;101882.26;;;17.21;32.29
57452;BME280;66031;51.224;-0.164;2023-02-02T05:55:17;101886.64;;;16.88;32.11
57452;BME280;66031;51.224;-0.164;2023-02-02T05:57:43;101886.04;;;17.03;31.96
57452;BME280;66031;51.224;-0.164;2023-02-02T06:00:09;101885.82;;;17.11;31.89
57452;BME280;66031;51.224;-0.164;2023-02-02T06:02:34;101889.70;;;17.24;31.76
57452;BME280;66031;51.224;-0.164;2023-02-02T06:04:59;101890.47;;;17.37;31.64
57452;BME280;66031;51.224;-0.164;2023-02-02T06:07:24;101893.53;;;17.38;31.67
57452;BME280;66031;51.224;-0.164;2023-02-02T06:09:50;101896.53;;;17.57;31.50
57452;BME280;66031;51.224;-0.164;2023-02-02T06:12:16;101893.30;;;17.44;31.40
57452;BME280;66031;51.224;-0.164;2023-02-02T06:14:40;101886.55;;;17.58;31.30
57452;BME280;66031;51.224;-0.164;2023-02-02T06:17:05;101887.38;;;17.67;31.01
57452;BME280;66031;51.224;-0.164;2023-02-02T06:19:31;101886.18;;;18.31;30.94
57452;BME280;66031;51.224;-0.164;2023-02-02T06:21:56;101886.27;;;18.06;30.96
57452;BME280;66031;51.224;-0.164;2023-02-02T06:24:21;101893.08;;;18.46;30.83
57452;BME280;66031;51.224;-0.164;2023-02-02T06:26:47;101892.65;;;18.38;30.71
57452;BME280;66031;51.224;-0.164;2023-02-02T06:29:12;101895.03;;;18.34;30.59
57452;BME280;66031;51.224;-0.164;2023-02-02T06:31:38;101896.87;;;18.32;30.58
57452;BME280;66031;51.224;-0.164;2023-02-02T06:34:03;101898.93;;;18.40;30.56
57452;BME280;66031;51.224;-0.164;2023-02-02T06:36:28;101901.65;;;18.36;30.66
57452;BME280;66031;51.224;-0.164;2023-02-02T06:38:54;101905.35;;;18.55;30.48
57452;BME280;66031;51.224;-0.164;2023-02-02T06:41:19;101905.66;;;18.66;30.46
57452;BME280;66031;51.224;-0.164;2023-02-02T06:43:44;101901.98;;;18.41;30.53
57452;BME280;66031;51.224;-0.164;2023-02-02T06:46:09;101895.17;;;19.03;30.12
57452;BME280;66031;51.224;-0.164;2023-02-02T06:48:34;101897.79;;;18.79;30.15
57452;BME280;66031;51.224;-0.164;2023-02-02T06:51:00;101895.66;;;18.90;30.30
57452;BME280;66031;51.224;-0.164;2023-02-02T06:53:25;101898.48;;;18.88;30.43
57452;BME280;66031;51.224;-0.164;2023-02-02T06:55:52;101904.04;;;19.01;30.36
57452;BME280;66031;51.224;-0.164;2023-02-02T06:58:15;101907.90;;;19.11;30.47
57452;BME280;66031;51.224;-0.164;2023-02-02T07:00:41;101906.81;;;18.95;30.49
57452;BME280;66031;51.224;-0.164;2023-02-02T07:03:06;101908.43;;;18.57;30.56
57452;BME280;66031;51.224;-0.164;2023-02-02T07:05:31;101903.77;;;18.92;30.39
57452;BME280;66031;51.224;-0.164;2023-02-02T07:07:57;101899.20;;;18.77;30.55
57452;BME280;66031;51.224;-0.164;2023-02-02T07:10:22;101905.70;;;18.58;30.49
57452;BME280;66031;51.224;-0.164;2023-02-02T07:12:47;101906.51;;;17.90;31.28
57452;BME280;66031;51.224;-0.164;2023-02-02T07:15:13;101912.36;;;18.15;31.30
57452;BME280;66031;51.224;-0.164;2023-02-02T07:17:38;101919.34;;;17.63;31.71
57452;BME280;66031;51.224;-0.164;2023-02-02T07:20:05;101921.37;;;17.80;31.73
57452;BME280;66031;51.224;-0.164;2023-02-02T07:22:29;101923.86;;;18.08;31.50
57452;BME280;66031;51.224;-0.164;2023-02-02T07:24:54;101924.63;;;18.40;31.20
57452;BME280;66031;51.224;-0.164;2023-02-02T07:27:19;101924.25;;;18.19;31.45
57452;BME280;66031;51.224;-0.164;2023-02-02T07:29:44;101922.15;;;18.15;31.56
57452;BME280;66031;51.224;-0.164;2023-02-02T07:32:10;101919.68;;;18.38;31.28
57452;BME280;66031;51.224;-0.164;2023-02-02T07:34:37;101919.17;;;18.39;31.04
57452;BME280;66031;51.224;-0.164;2023-02-02T07:37:00;101914.18;;;18.37;31.03
57452;BME280;66031;51.224;-0.164;2023-02-02T07:39:25;101923.03;;;18.18;31.61
57452;BME280;66031;51.224;-0.164;2023-02-02T07:41:51;101914.83;;;18.57;31.37
57452;BME280;66031;51.224;-0.164;2023-02-02T07:44:16;101921.25;;;18.22;31.85
57452;BME280;66031;51.224;-0.164;2023-02-02T07:46:42;101921.82;;;18.31;31.89
57452;BME280;66031;51.224;-0.164;2023-02-02T07:49:07;101924.89;;;17.97;32.10
57452;BME280;66031;51.224;-0.164;2023-02-02T07:51:32;101924.17;;;18.54;31.34
57452;BME280;66031;51.224;-0.164;2023-02-02T07:53:57;101931.56;;;18.83;31.03
57452;BME280;66031;51.224;-0.164;2023-02-02T07:56:25;101927.17;;;18.84;30.73
57452;BME280;66031;51.224;-0.164;2023-02-02T07:58:51;101925.05;;;18.69;30.88
57452;BME280;66031;51.224;-0.164;2023-02-02T08:01:14;101925.08;;;18.90;30.85
57452;BME280;66031;51.224;-0.164;2023-02-02T08:03:39;101923.43;;;18.97;30.76
57452;BME280;66031;51.224;-0.164;2023-02-02T08:06:09;101918.00;;;19.01;30.67
57452;BME280;66031;51.224;-0.164;2023-02-02T08:08:30;101912.81;;;18.80;30.56
57452;BME280;66031;51.224;-0.164;2023-02-02T08:10:54;101916.98;;;18.65;31.00
57452;BME280;66031;51.224;-0.164;2023-02-02T08:13:20;101917.66;;;18.21;31.18
57452;BME280;66031;51.224;-0.164;2023-02-02T08:15:45;101918.99;;;18.43;31.18
57452;BME280;66031;51.224;-0.164;2023-02-02T08:18:10;101918.43;;;17.88;31.48
57452;BME280;66031;51.224;-0.164;2023-02-02T08:20:35;101923.65;;;18.38;31.72
57452;BME280;66031;51.224;-0.164;2023-02-02T08:23:01;101930.65;;;17.86;31.74
57452;BME280;66031;51.224;-0.164;2023-02-02T08:25:26;101939.46;;;17.89;31.96
57452;BME280;66031;51.224;-0.164;2023-02-02T08:27:52;101943.28;;;17.47;32.13
57452;BME280;66031;51.224;-0.164;2023-02-02T08:30:17;101951.92;;;17.33;32.24
57452;BME280;66031;51.224;-0.164;2023-02-02T08:32:42;101953.29;;;17.26;32.32
57452;BME280;66031;51.224;-0.164;2023-02-02T08:35:07;101957.60;;;17.09;32.49
57452;BME280;66031;51.224;-0.164;2023-02-02T08:37:32;101960.72;;;17.06;32.49
57452;BME280;66031;51.224;-0.164;2023-02-02T08:39:57;101966.11;;;17.08;32.45
57452;BME280;66031;51.224;-0.164;2023-02-02T08:42:23;101971.46;;;17.48;32.50
57452;BME280;66031;51.224;-0.164;2023-02-02T08:44:48;101976.36;;;16.86;32.63
57452;BME280;66031;51.224;-0.164;2023-02-02T08:47:14;101982.11;;;16.75;32.75
57452;BME280;66031;51.224;-0.164;2023-02-02T08:49:39;101978.36;;;16.90;32.80
57452;BME280;66031;51.224;-0.164;2023-02-02T08:52:04;101981.79;;;16.62;32.82
57452;BME280;66031;51.224;-0.164;2023-02-02T08:54:29;101986.72;;;16.79;32.87
57452;BME280;66031;51.224;-0.164;2023-02-02T08:56:55;101984.20;;;16.71;32.97
57452;BME280;66031;51.224;-0.164;2023-02-02T08:59:20;101978.09;;;17.02;32.86
57452;BME280;66031;51.224;-0.164;2023-02-02T09:01:45;101981.23;;;16.76;32.85
57452;BME280;66031;51.224;-0.164;2023-02-02T09:04:13;101982.10;;;17.48;32.85
57452;BME280;66031;51.224;-0.164;2023-02-02T09:06:37;101982.61;;;16.95;32.87
57452;BME280;66031;51.224;-0.164;2023-02-02T09:09:02;101988.16;;;16.80;32.76
57452;BME280;66031;51.224;-0.164;2023-02-02T09:11:26;101992.39;;;17.05;32.74
57452;BME280;66031;51.224;-0.164;2023-02-02T09:13:53;101998.16;;;16.95;32.80
57452;BME280;66031;51.224;-0.164;2023-02-02T09:16:19;102002.47;;;16.97;32.79
57452;BME280;66031;51.224;-0.164;2023-02-02T09:18:43;102006.55;;;17.01;32.71
57452;BME280;66031;51.224;-0.164;2023-02-02T09:21:10;102007.36;;;16.70;32.75
57452;BME280;66031;51.224;-0.164;2023-02-02T09:23:35;102005.55;;;17.07;32.87
57452;BME280;66031;51.224;-0.164;2023-02-02T09:26:07;102010.48;;;16.80;32.87
57452;BME280;66031;51.224;-0.164;2023-02-02T09:28:23;102012.46;;;16.71;32.95
57452;BME280;66031;51.224;-0.164;2023-02-02T09:30:49;102015.85;;;16.59;32.80
57452;BME280;66031;51.224;-0.164;2023-02-02T09:33:14;102015.87;;;16.87;32.72
57452;BME280;66031;51.224;-0.164;2023-02-02T09:35:39;102021.38;;;17.03;32.53
57452;BME280;66031;51.224;-0.164;2023-02-02T09:38:05;102027.36;;;16.94;32.64
57452;BME280;66031;51.224;-0.164;2023-02-02T09:40:33;102025.04;;;16.90;32.64
57452;BME280;66031;51.224;-0.164;2023-02-02T09:43:03;102023.71;;;16.84;32.66
57452;BME280;66031;51.224;-0.164;2023-02-02T09:45:25;102027.18;;;16.84;32.66
57452;BME280;66031;51.224;-0.164;2023-02-02T09:47:52;102034.88;;;16.77;32.70
57452;BME280;66031;51.224;-0.164;2023-02-02T09:50:15;102035.21;;;16.74;32.71
57452;BME280;66031;51.224;-0.164;2023-02-02T09:52:40;102032.56;;;16.69;32.76
57452;BME280;66031;51.224;-0.164;2023-02-02T09:55:04;102031.94;;;16.93;32.74
57452;BME280;66031;51.224;-0.164;2023-02-02T09:57:31;102032.94;;;16.22;32.75
57452;BME280;66031;51.224;-0.164;2023-02-02T09:59:54;102027.12;;;16.73;32.71
57452;BME280;66031;51.224;-0.164;2023-02-02T10:02:23;102022.95;;;16.86;32.55
57452;BME280;66031;51.224;-0.164;2023-02-02T10:04:47;102025.15;;;16.95;32.69
57452;BME280;66031;51.224;-0.164;2023-02-02T10:07:12;102018.49;;;16.79;32.58
57452;BME280;66031;51.224;-0.164;2023-02-02T10:09:41;102021.55;;;16.78;32.55
57452;BME280;66031;51.224;-0.164;2023-02-02T10:12:04;102023.16;;;16.80;32.54
57452;BME280;66031;51.224;-0.164;2023-02-02T10:14:28;102025.97;;;16.77;32.55
57452;BME280;66031;51.224;-0.164;2023-02-02T10:16:53;102028.04;;;16.86;32.42
57452;BME280;66031;51.224;-0.164;2023-02-02T10:19:15;102034.38;;;16.78;32.50
57452;BME280;66031;51.224;-0.164;2023-02-02T10:21:45;102040.43;;;16.77;32.48
57452;BME280;66031;51.224;-0.164;2023-02-02T10:24:11;102041.84;;;16.65;32.58
57452;BME280;66031;51.224;-0.164;2023-02-02T10:26:36;102048.83;;;16.66;32.60
57452;BME280;66031;51.224;-0.164;2023-02-02T10:29:04;102058.78;;;16.84;32.64
57452;BME280;66031;51.224;-0.164;2023-02-02T10:31:34;102063.87;;;16.62;32.60
57452;BME280;66031;51.224;-0.164;2023-02-02T10:33:56;102064.08;;;16.52;32.72
57452;BME280;66031;51.224;-0.164;2023-02-02T10:36:19;102068.17;;;16.53;32.70
57452;BME280;66031;51.224;-0.164;2023-02-02T10:38:44;102066.45;;;16.55;32.66
57452;BME280;66031;51.224;-0.164;2023-02-02T10:41:10;102070.84;;;16.73;32.72
57452;BME280;66031;51.224;-0.164;2023-02-02T10:45:54;102070.40;;;16.43;32.78
57452;BME280;66031;51.224;-0.164;2023-02-02T10:48:21;102075.77;;;16.48;32.72
57452;BME280;66031;51.224;-0.164;2023-02-02T10:50:47;102072.23;;;16.53;32.63
57452;BME280;66031;51.224;-0.164;2023-02-02T10:53:12;102072.84;;;16.45;32.71
57452;BME280;66031;51.224;-0.164;2023-02-02T10:55:38;102071.75;;;16.33;32.84
57452;BME280;66031;51.224;-0.164;2023-02-02T10:58:07;102071.41;;;16.56;32.85
57452;BME280;66031;51.224;-0.164;2023-02-02T11:00:31;102070.54;;;16.31;32.84
57452;BME280;66031;51.224;-0.164;2023-02-02T11:02:51;102065.89;;;16.57;32.82
57452;BME280;66031;51.224;-0.164;2023-02-02T11:05:20;102059.78;;;16.32;32.82
57452;BME280;66031;51.224;-0.164;2023-02-02T11:07:41;102061.16;;;16.28;32.87
57452;BME280;66031;51.224;-0.164;2023-02-02T11:10:07;102054.87;;;16.31;32.85
57452;BME280;66031;51.224;-0.164;2023-02-02T11:12:34;102050.75;;;16.27;32.89
57452;BME280;66031;51.224;-0.164;2023-02-02T11:14:59;102048.01;;;16.52;32.88
57452;BME280;66031;51.224;-0.164;2023-02-02T11:17:23;102042.05;;;16.26;32.89
57452;BME280;66031;51.224;-0.164;2023-02-02T11:19:48;102039.86;;;16.48;32.89
57452;BME280;66031;51.224;-0.164;2023-02-02T11:22:24;102036.11;;;16.19;32.94
57452;BME280;66031;51.224;-0.164;2023-02-02T11:24:44;102032.23;;;16.26;32.85
57452;BME280;66031;51.224;-0.164;2023-02-02T11:27:06;102029.10;;;16.17;32.93
57452;BME280;66031;51.224;-0.164;2023-02-02T11:29:32;102031.82;;;16.14;32.98
57452;BME280;66031;51.224;-0.164;2023-02-02T11:31:54;102031.43;;;16.17;32.94
57452;BME280;66031;51.224;-0.164;2023-02-02T11:34:22;102025.87;;;16.24;32.88
57452;BME280;66031;51.224;-0.164;2023-02-02T11:36:57;102026.53;;;16.42;32.94
57452;BME280;66031;51.224;-0.164;2023-02-02T11:39:14;102028.01;;;16.24;32.86
57452;BME280;66031;51.224;-0.164;2023-02-02T11:41:37;102024.74;;;16.17;32.90
57452;BME280;66031;51.224;-0.164;2023-02-02T11:44:02;102024.34;;;16.22;32.83
57452;BME280;66031;51.224;-0.164;2023-02-02T11:46:28;102023.15;;;16.64;32.87
57452;BME280;66031;51.224;-0.164;2023-02-02T11:48:57;102019.36;;;16.52;33.02
57452;BME280;66031;51.224;-0.164;2023-02-02T11:51:23;102014.93;;;16.00;33.05
57452;BME280;66031;51.224;-0.164;2023-02-02T11:53:45;102014.87;;;16.42;33.11
57452;BME280;66031;51.224;-0.164;2023-02-02T11:56:10;102007.18;;;16.20;33.09
57452;BME280;66031;51.224;-0.164;2023-02-02T11:58:43;102005.20;;;16.22;33.06
57452;BME280;66031;51.224;-0.164;2023-02-02T12:01:00;102001.51;;;16.26;33.01
57452;BME280;66031;51.224;-0.164;2023-02-02T12:03:28;101992.87;;;16.10;32.91
57452;BME280;66031;51.224;-0.164;2023-02-02T12:05:49;101996.50;;;16.37;32.90
57452;BME280;66031;51.224;-0.164;2023-02-02T12:08:14;101993.62;;;16.21;32.80
57452;BME280;66031;51.224;-0.164;2023-02-02T12:10:43;101992.73;;;16.25;32.75
57452;BME280;66031;51.224;-0.164;2023-02-02T12:13:08;101993.11;;;16.74;32.76
57452;BME280;66031;51.224;-0.164;2023-02-02T12:15:39;101994.18;;;16.48;32.80
57452;BME280;66031;51.224;-0.164;2023-02-02T12:18:02;101991.93;;;16.72;32.81
57452;BME280;66031;51.224;-0.164;2023-02-02T12:20:27;101992.60;;;16.24;32.80
57452;BME280;66031;51.224;-0.164;2023-02-02T12:23:00;101989.68;;;16.19;32.84
57452;BME280;66031;51.224;-0.164;2023-02-02T12:25:28;101995.80;;;16.39;32.86
57452;BME280;66031;51.224;-0.164;2023-02-02T12:27:43;101990.45;;;16.39;32.83
57452;BME280;66031;51.224;-0.164;2023-02-02T12:30:12;101992.28;;;15.34;32.66
57452;BME280;66031;51.224;-0.164;2023-02-02T12:35:01;101981.61;;;16.47;32.06
57452;BME280;66031;51.224;-0.164;2023-02-02T12:37:25;101983.95;;;16.43;32.39
57452;BME280;66031;51.224;-0.164;2023-02-02T12:39:52;101981.12;;;16.28;32.55
57452;BME280;66031;51.224;-0.164;2023-02-02T12:42:25;101980.83;;;16.16;32.70
57452;BME280;66031;51.224;-0.164;2023-02-02T12:44:41;101978.34;;;16.07;32.80
57452;BME280;66031;51.224;-0.164;2023-02-02T12:47:08;101976.24;;;16.34;32.77